Time;durP1;ratioP1;P1;durP2;ratioP2;P2;SDS_P1;SDS_P2;PMS_P1;PMS_P2;Temp;Humidity;BMP_temperature;BMP_pressure;BME280_temperature;BME280_humidity;BME280_pressure;Samples;Min_cycle;Max_cycle;Signal;HPM_P1;HPM_P2
2020/12/19 00:00:14;;;;;;;23.55;9.05;;;;;;;1.46;97.27;97239.06;5017696;28;20136;-61
2020/12/19 00:02:40;;;;;;;22.75;9.00;;;;;;;1.49;97.45;97243.88;5002160;28;20410;-63
2020/12/19 00:05:06;;;;;;;21.25;9.10;;;;;;;1.48;97.32;97242.28;4995435;28;20069;-63
2020/12/19 00:07:32;;;;;;;27.67;8.80;;;;;;;1.54;96.91;97241.09;5005612;28;20045;-59
2020/12/19 00:09:58;;;;;;;18.85;8.10;;;;;;;1.55;96.38;97245.44;5006675;28;20146;-61
2020/12/19 00:12:23;;;;;;;17.90;8.00;;;;;;;1.54;97.01;97233.00;4999591;28;20823;-62
2020/12/19 00:14:49;;;;;;;29.83;9.20;;;;;;;1.46;96.30;97226.38;5002361;28;20049;-63
2020/12/19 00:17:15;;;;;;;19.45;8.75;;;;;;;1.45;97.14;97232.09;4979425;28;20042;-62
2020/12/19 00:19:41;;;;;;;16.80;8.40;;;;;;;1.41;96.76;97231.06;4983624;28;20655;-61
2020/12/19 00:22:07;;;;;;;19.30;8.98;;;;;;;1.50;97.05;97232.78;4978236;28;20601;-61
2020/12/19 00:24:32;;;;;;;21.20;8.00;;;;;;;1.50;97.06;97235.50;4982630;28;20073;-62
2020/12/19 00:26:58;;;;;;;19.08;7.80;;;;;;;1.56;96.27;97230.81;4982528;28;20089;-61
2020/12/19 00:29:23;;;;;;;21.55;8.50;;;;;;;1.48;95.88;97226.09;4975504;28;20669;-62
2020/12/19 00:31:49;;;;;;;23.08;8.65;;;;;;;1.47;96.56;97241.47;5000412;28;20049;-60
2020/12/19 00:34:16;;;;;;;18.52;8.55;;;;;;;1.47;95.97;97238.78;4996673;28;20151;-63
2020/12/19 00:36:42;;;;;;;40.60;9.38;;;;;;;1.28;96.01;97236.13;5001518;28;20400;-60
2020/12/19 00:39:07;;;;;;;24.23;9.05;;;;;;;1.26;96.71;97237.47;4996303;28;20042;-63
2020/12/19 00:41:33;;;;;;;18.50;8.45;;;;;;;1.39;96.93;97230.53;5000605;28;20045;-60
2020/12/19 00:43:59;;;;;;;18.08;7.78;;;;;;;1.33;96.23;97221.72;5002152;28;20049;-61
2020/12/19 00:46:24;;;;;;;24.98;8.45;;;;;;;1.36;96.55;97228.44;4994227;28;20077;-61
2020/12/19 00:48:50;;;;;;;17.70;7.55;;;;;;;1.37;96.28;97225.47;5005134;28;20045;-60
2020/12/19 00:51:18;;;;;;;20.55;8.23;;;;;;;1.34;95.93;97226.84;5016685;28;20084;-60
2020/12/19 00:53:45;;;;;;;19.98;8.20;;;;;;;1.34;95.88;97223.34;5022187;28;20041;-60
2020/12/19 00:56:20;;;;;;;19.63;7.72;;;;;;;1.29;96.14;97218.81;5017121;28;20041;-60
2020/12/19 00:58:47;;;;;;;14.80;7.28;;;;;;;1.22;95.92;97217.59;5020501;28;20038;-61
2020/12/19 01:01:14;;;;;;;18.77;7.68;;;;;;;1.13;96.11;97217.44;5001317;28;20398;-60
2020/12/19 01:03:40;;;;;;;21.20;7.55;;;;;;;1.17;96.52;97207.69;4999761;28;20072;-60
2020/12/19 01:06:07;;;;;;;14.88;7.47;;;;;;;1.20;96.11;97217.09;4996959;28;20081;-60
2020/12/19 01:08:32;;;;;;;19.00;7.60;;;;;;;1.25;96.19;97217.00;5002180;28;20050;-61
2020/12/19 01:10:58;;;;;;;21.55;9.18;;;;;;;1.16;96.03;97219.56;5001943;28;20115;-60
2020/12/19 01:13:23;;;;;;;18.17;8.05;;;;;;;1.07;96.37;97226.72;4996115;28;20587;-60
2020/12/19 01:15:49;;;;;;;17.33;8.60;;;;;;;1.11;96.90;97225.03;5002319;28;20038;-60
2020/12/19 01:18:16;;;;;;;26.70;9.38;;;;;;;1.20;96.67;97214.38;4994322;28;20049;-60
2020/12/19 01:20:42;;;;;;;25.88;9.48;;;;;;;1.28;96.14;97208.34;5001620;28;20046;-62
2020/12/19 01:23:07;;;;;;;16.77;8.63;;;;;;;1.28;95.14;97216.44;4996351;28;20042;-61
2020/12/19 01:25:33;;;;;;;18.17;8.88;;;;;;;1.25;95.52;97217.00;5007959;28;20048;-62
2020/12/19 01:27:58;;;;;;;17.23;9.05;;;;;;;1.24;94.57;97218.91;5017070;28;20045;-62
2020/12/19 01:30:23;;;;;;;17.27;8.15;;;;;;;1.18;95.03;97222.75;5011939;28;20096;-63
2020/12/19 01:32:50;;;;;;;18.60;8.95;;;;;;;1.17;94.67;97220.34;5004968;28;20065;-60
2020/12/19 01:35:16;;;;;;;21.08;8.27;;;;;;;1.14;95.22;97210.97;5007475;28;20052;-60
2020/12/19 01:37:43;;;;;;;18.42;8.38;;;;;;;1.13;95.42;97209.34;5021306;28;20132;-60
2020/12/19 01:40:09;;;;;;;22.98;8.38;;;;;;;1.15;95.79;97209.84;5015545;28;20103;-62
2020/12/19 01:42:34;;;;;;;46.85;9.10;;;;;;;1.03;95.75;97210.31;5018842;28;20045;-61
2020/12/19 01:44:59;;;;;;;25.67;9.20;;;;;;;1.05;96.11;97213.50;5020084;28;20041;-60
2020/12/19 01:47:26;;;;;;;18.27;7.22;;;;;;;1.00;96.28;97210.88;5013757;28;20635;-61
2020/12/19 01:49:52;;;;;;;18.70;8.00;;;;;;;1.01;96.58;97204.41;5009695;28;20095;-63
2020/12/19 01:52:21;;;;;;;47.95;8.38;;;;;;;0.95;96.24;97205.56;4992777;28;20046;-61
2020/12/19 01:54:47;;;;;;;14.90;7.75;;;;;;;0.83;95.94;97203.31;5003968;28;20053;-63
2020/12/19 01:57:14;;;;;;;23.52;8.40;;;;;;;0.67;96.42;97193.81;5000820;28;20038;-60
2020/12/19 01:59:39;;;;;;;18.02;8.65;;;;;;;0.65;96.26;97199.50;5011972;28;20045;-60
2020/12/19 02:02:06;;;;;;;27.15;8.90;;;;;;;0.63;96.44;97204.41;5002350;28;20069;-60
2020/12/19 02:04:33;;;;;;;19.42;8.10;;;;;;;0.66;96.97;97206.47;5003273;28;20056;-64
2020/12/19 02:07:01;;;;;;;21.52;7.68;;;;;;;0.73;97.11;97208.84;5008003;28;20153;-63
2020/12/19 02:09:36;;;;;;;55.75;8.63;;;;;;;0.54;96.23;97206.94;5001984;28;20878;-61
2020/12/19 02:12:03;;;;;;;45.05;10.95;;;;;;;0.41;97.17;97198.72;5006880;28;20048;-61
2020/12/19 02:14:29;;;;;;;46.65;9.25;;;;;;;0.21;97.84;97208.66;5002499;28;20128;-59
2020/12/19 02:17:00;;;;;;;35.72;8.45;;;;;;;0.18;98.15;97209.22;5007356;28;20052;-59
2020/12/19 02:19:27;;;;;;;19.95;8.77;;;;;;;0.38;98.39;97202.81;5001932;28;20043;-62
2020/12/19 02:21:53;;;;;;;23.95;8.45;;;;;;;0.42;98.42;97201.16;5007208;28;20044;-62
2020/12/19 02:24:19;;;;;;;35.22;8.32;;;;;;;0.39;97.76;97196.31;5002339;28;20494;-61
2020/12/19 02:26:49;;;;;;;44.95;10.10;;;;;;;0.19;97.81;97198.16;5018247;28;20045;-61
2020/12/19 02:29:15;;;;;;;81.80;10.07;;;;;;;0.00;98.45;97197.31;5018473;28;20133;-58
2020/12/19 02:31:41;;;;;;;33.53;9.05;;;;;;;0.01;99.09;97190.03;5026667;28;20087;-59
2020/12/19 02:34:06;;;;;;;19.50;8.60;;;;;;;0.26;98.97;97178.16;5021905;28;20072;-63
2020/12/19 02:36:32;;;;;;;20.17;8.60;;;;;;;0.34;99.28;97189.13;5025351;28;20075;-62
2020/12/19 02:38:57;;;;;;;18.83;8.20;;;;;;;0.49;99.39;97181.94;5026931;28;20394;-61
2020/12/19 02:41:23;;;;;;;14.00;7.28;;;;;;;0.69;99.06;97183.56;5020125;28;20431;-61
2020/12/19 02:43:53;;;;;;;73.60;9.77;;;;;;;0.38;97.75;97187.44;5024787;28;20494;-64
2020/12/19 02:46:19;;;;;;;16.63;7.82;;;;;;;0.35;97.93;97179.94;5022187;28;20038;-63
2020/12/19 02:48:44;;;;;;;19.00;7.47;;;;;;;0.37;98.04;97176.94;5027013;28;20037;-64
2020/12/19 02:51:10;;;;;;;18.42;8.65;;;;;;;0.50;97.28;97180.81;5021800;28;20394;-65
2020/12/19 02:53:35;;;;;;;16.98;7.68;;;;;;;0.60;97.85;97177.22;5032913;28;20064;-59
2020/12/19 02:56:00;;;;;;;14.10;7.53;;;;;;;0.75;96.79;97177.78;5024322;28;20037;-63
2020/12/19 02:58:26;;;;;;;16.25;7.38;;;;;;;0.68;96.53;97182.72;5020821;28;20693;-61
2020/12/19 03:00:51;;;;;;;36.40;8.00;;;;;;;-0.04;97.21;97186.31;5026273;28;20478;-61
2020/12/19 03:03:17;;;;;;;93.47;9.23;;;;;;;-0.42;99.23;97188.81;5021078;28;20432;-59
2020/12/19 03:05:42;;;;;;;51.42;8.18;;;;;;;-0.54;100.00;97180.34;5026999;28;20037;-61
2020/12/19 03:08:07;;;;;;;59.00;9.50;;;;;;;-0.53;100.00;97181.13;5019745;28;20148;-61
2020/12/19 03:10:33;;;;;;;25.77;8.77;;;;;;;-0.44;100.00;97169.47;5023793;28;20382;-62
2020/12/19 03:12:58;;;;;;;19.42;8.48;;;;;;;-0.42;100.00;97169.97;5022925;28;20050;-62
2020/12/19 03:15:23;;;;;;;61.70;9.20;;;;;;;-0.24;100.00;97170.34;5015232;28;20577;-61
2020/12/19 03:17:49;;;;;;;39.22;9.57;;;;;;;-0.27;100.00;97173.59;5022786;28;20122;-63
2020/12/19 03:20:14;;;;;;;24.83;9.18;;;;;;;-0.25;100.00;97158.78;5015653;28;20199;-62
2020/12/19 03:22:40;;;;;;;80.53;10.48;;;;;;;-0.35;100.00;97166.97;5021993;28;20049;-61
2020/12/19 03:25:05;;;;;;;64.00;9.32;;;;;;;-0.48;100.00;97168.44;5017956;28;20080;-61
2020/12/19 03:27:31;;;;;;;92.60;11.15;;;;;;;-0.63;100.00;97163.19;5021985;28;20041;-61
2020/12/19 03:29:56;;;;;;;79.55;11.23;;;;;;;-0.70;100.00;97165.41;5022651;28;20029;-61
2020/12/19 03:32:22;;;;;;;143.27;13.30;;;;;;;-0.84;100.00;97154.50;5001717;28;20346;-62
2020/12/19 03:34:47;;;;;;;85.68;10.45;;;;;;;-0.78;100.00;97156.06;5003112;28;20049;-60
2020/12/19 03:37:12;;;;;;;127.55;11.45;;;;;;;-0.77;100.00;97157.66;4998050;28;20053;-62
2020/12/19 03:39:38;;;;;;;47.00;9.55;;;;;;;-0.75;100.00;97150.13;5001313;28;20558;-63
2020/12/19 03:42:03;;;;;;;94.65;11.07;;;;;;;-0.77;100.00;97152.28;5004484;28;20045;-62
2020/12/19 03:44:29;;;;;;;101.95;12.35;;;;;;;-0.79;100.00;97141.81;5005032;28;20045;-64
2020/12/19 03:46:54;;;;;;;108.10;12.77;;;;;;;-0.87;100.00;97144.28;5011653;28;20037;-62
2020/12/19 03:49:20;;;;;;;145.02;13.75;;;;;;;-0.98;100.00;97143.56;5018711;28;20493;-61
2020/12/19 03:51:45;;;;;;;207.20;15.25;;;;;;;-1.09;100.00;97136.69;5025303;28;20220;-64
2020/12/19 03:54:10;;;;;;;117.60;12.20;;;;;;;-1.08;100.00;97146.31;5024738;28;20080;-61
2020/12/19 03:56:36;;;;;;;145.00;13.13;;;;;;;-1.16;100.00;97139.66;5039297;28;20045;-63
2020/12/19 03:59:01;;;;;;;114.65;13.13;;;;;;;-1.22;100.00;97140.81;5036483;28;20045;-62
2020/12/19 04:01:27;;;;;;;131.20;13.18;;;;;;;-1.09;100.00;97134.00;5019171;28;20034;-62
2020/12/19 04:03:52;;;;;;;101.53;12.38;;;;;;;-1.20;100.00;97136.75;5022392;28;20060;-60
2020/12/19 04:06:18;;;;;;;67.07;11.25;;;;;;;-1.13;100.00;97133.75;5016379;28;20037;-63
2020/12/19 04:08:43;;;;;;;83.65;11.00;;;;;;;-1.23;100.00;97136.50;5019258;28;20068;-62
2020/12/19 04:11:09;;;;;;;192.68;16.77;;;;;;;-1.37;100.00;97139.00;5016834;28;20091;-63
2020/12/19 04:13:34;;;;;;;93.05;13.40;;;;;;;-1.36;100.00;97143.31;5021872;28;20041;-63
2020/12/19 04:16:00;;;;;;;137.05;14.65;;;;;;;-1.52;100.00;97136.41;5022654;28;20612;-62
2020/12/19 04:18:26;;;;;;;140.95;16.08;;;;;;;-1.57;100.00;97132.69;5016846;28;20132;-61
2020/12/19 04:20:51;;;;;;;39.88;10.23;;;;;;;-1.25;100.00;97136.78;5022632;28;20038;-60
2020/12/19 04:23:17;;;;;;;54.80;11.90;;;;;;;-1.58;100.00;97141.81;5018523;28;20048;-60
2020/12/19 04:25:42;;;;;;;64.97;12.88;;;;;;;-1.75;100.00;97136.81;5022674;28;20046;-60
2020/12/19 04:28:08;;;;;;;72.38;11.35;;;;;;;-1.69;100.00;97126.03;5017843;28;20041;-62
2020/12/19 04:30:33;;;;;;;25.95;9.88;;;;;;;-1.48;100.00;97126.72;5022689;28;20629;-60
2020/12/19 04:32:58;;;;;;;69.63;11.40;;;;;;;-1.56;100.00;97122.75;5022311;28;20457;-61
2020/12/19 04:35:24;;;;;;;43.92;11.77;;;;;;;-1.47;100.00;97120.28;5016673;28;20531;-60
2020/12/19 04:37:49;;;;;;;42.55;10.70;;;;;;;-1.54;100.00;97112.50;5023451;28;20080;-61
2020/12/19 04:40:15;;;;;;;31.17;10.05;;;;;;;-1.42;100.00;97115.66;5016951;28;20520;-62
2020/12/19 04:42:41;;;;;;;27.52;10.43;;;;;;;-1.46;100.00;97117.31;5022064;28;20037;-61
2020/12/19 04:45:06;;;;;;;30.65;9.75;;;;;;;-1.56;100.00;97109.31;5023910;28;20037;-61
2020/12/19 04:47:32;;;;;;;29.75;11.40;;;;;;;-1.71;100.00;97117.44;5031306;28;20061;-62
2020/12/19 04:49:59;;;;;;;23.88;11.30;;;;;;;-1.78;100.00;97121.25;5039736;28;20139;-61
2020/12/19 04:52:24;;;;;;;24.70;12.52;;;;;;;-2.02;100.00;97115.69;5015583;28;20345;-61
2020/12/19 04:54:50;;;;;;;26.10;12.85;;;;;;;-2.07;100.00;97120.28;5022070;28;20106;-61
2020/12/19 04:57:18;;;;;;;24.60;13.55;;;;;;;-2.13;100.00;97116.81;5017561;28;20071;-61
2020/12/19 04:59:44;;;;;;;24.90;12.38;;;;;;;-2.12;100.00;97111.19;5021840;28;20091;-63
2020/12/19 05:02:10;;;;;;;26.80;13.02;;;;;;;-2.18;100.00;97111.47;5017248;28;20120;-61
2020/12/19 05:04:39;;;;;;;27.40;13.10;;;;;;;-2.16;100.00;97114.69;5005799;28;20041;-63
2020/12/19 05:07:06;;;;;;;26.83;12.30;;;;;;;-2.14;100.00;97112.56;4996675;28;20038;-61
2020/12/19 05:09:43;;;;;;;36.33;12.98;;;;;;;-2.25;100.00;97108.28;5000709;28;20463;-61
2020/12/19 05:12:10;;;;;;;30.77;12.52;;;;;;;-2.35;100.00;97117.16;4997042;28;20050;-60
2020/12/19 05:14:37;;;;;;;32.17;13.00;;;;;;;-2.36;100.00;97116.38;5002728;28;20104;-61
2020/12/19 05:17:03;;;;;;;39.35;13.95;;;;;;;-2.39;100.00;97119.59;5000797;28;20126;-63
2020/12/19 05:19:28;;;;;;;39.50;14.27;;;;;;;-2.43;100.00;97110.50;5000218;28;20152;-61
2020/12/19 05:21:57;;;;;;;49.03;15.02;;;;;;;-2.43;100.00;97110.50;5000871;28;20479;-61
2020/12/19 05:24:31;;;;;;;35.53;14.10;;;;;;;-2.41;100.00;97111.03;5002215;28;20053;-59
2020/12/19 05:26:58;;;;;;;47.67;15.18;;;;;;;-2.36;100.00;97112.88;5037321;28;20092;-61
2020/12/19 05:29:25;;;;;;;52.15;18.00;;;;;;;-2.38;100.00;97113.13;5023301;28;20368;-61
2020/12/19 05:31:58;;;;;;;48.28;15.32;;;;;;;-2.30;100.00;97109.13;5025045;28;20498;-63
2020/12/19 05:34:24;;;;;;;40.35;16.80;;;;;;;-2.33;100.00;97106.97;5020840;28;20831;-63
2020/12/19 05:36:50;;;;;;;36.17;16.15;;;;;;;-2.34;100.00;97097.28;5022216;28;20041;-62
2020/12/19 05:39:16;;;;;;;34.60;15.38;;;;;;;-2.30;100.00;97106.44;5006062;28;20068;-61
2020/12/19 05:41:42;;;;;;;33.95;15.27;;;;;;;-2.39;100.00;97102.69;5005017;28;20030;-62
2020/12/19 05:44:08;;;;;;;34.22;14.88;;;;;;;-2.40;100.00;97109.94;5006086;28;20061;-63
2020/12/19 05:46:38;;;;;;;35.20;13.55;;;;;;;-2.46;100.00;97110.22;5012641;28;20042;-62
2020/12/19 05:49:06;;;;;;;38.53;13.65;;;;;;;-2.58;100.00;97113.19;5006614;28;20041;-62
2020/12/19 05:51:34;;;;;;;44.25;14.55;;;;;;;-2.65;100.00;97113.47;5021629;28;20049;-62
2020/12/19 05:54:02;;;;;;;37.88;14.50;;;;;;;-2.58;100.00;97103.25;5011290;28;20403;-60
2020/12/19 05:56:28;;;;;;;41.08;16.38;;;;;;;-2.74;100.00;97112.41;4997709;28;20044;-60
2020/12/19 05:58:54;;;;;;;44.65;16.17;;;;;;;-2.70;100.00;97110.81;5000089;28;20136;-62
2020/12/19 06:01:21;;;;;;;34.67;13.43;;;;;;;-2.58;100.00;97110.50;4996529;28;20100;-63
2020/12/19 06:03:49;;;;;;;39.38;13.75;;;;;;;-2.47;100.00;97111.28;5001400;28;20186;-61
2020/12/19 06:06:16;;;;;;;34.72;13.32;;;;;;;-2.24;100.00;97117.94;4996427;28;20049;-62
2020/12/19 06:08:42;;;;;;;32.83;12.88;;;;;;;-2.00;100.00;97115.44;4997418;28;20574;-62
2020/12/19 06:11:13;;;;;;;47.03;12.70;;;;;;;-1.88;100.00;97113.22;4995860;28;20141;-64
2020/12/19 06:13:44;;;;;;;34.88;12.02;;;;;;;-1.87;100.00;97117.53;5000416;28;20041;-61
2020/12/19 06:16:11;;;;;;;29.65;12.00;;;;;;;-1.81;100.00;97123.69;4996945;28;20038;-63
2020/12/19 06:18:48;;;;;;;29.92;11.30;;;;;;;-1.75;100.00;97127.94;5000135;28;20073;-60
2020/12/19 06:21:14;;;;;;;26.13;11.25;;;;;;;-1.84;100.00;97119.66;5000810;28;20105;-66
2020/12/19 06:23:40;;;;;;;27.67;10.35;;;;;;;-2.14;100.00;97123.28;5012638;28;20042;-65
2020/12/19 06:26:07;;;;;;;24.70;10.75;;;;;;;-1.97;100.00;97125.63;5007560;28;20046;-66
2020/12/19 06:28:42;;;;;;;24.90;9.98;;;;;;;-1.83;100.00;97123.94;5005875;28;20046;-61
2020/12/19 06:31:08;;;;;;;24.08;10.45;;;;;;;-1.51;100.00;97122.72;4996579;28;20460;-63
2020/12/19 06:33:35;;;;;;;34.13;11.80;;;;;;;-1.66;100.00;97125.47;5000344;28;20045;-65
2020/12/19 06:36:16;;;;;;;36.17;11.63;;;;;;;-1.86;100.00;97129.06;5000441;28;20058;-64
2020/12/19 06:38:54;;;;;;;26.45;11.32;;;;;;;-1.54;100.00;97129.44;5000800;28;20045;-62
2020/12/19 06:41:42;;;;;;;23.67;10.85;;;;;;;-1.46;100.00;97140.66;4994261;28;20099;-62
2020/12/19 06:44:09;;;;;;;21.90;11.02;;;;;;;-1.45;100.00;97135.03;4998315;28;20541;-61
2020/12/19 06:46:35;;;;;;;21.75;10.52;;;;;;;-1.52;100.00;97133.72;5009267;28;20049;-62
2020/12/19 06:49:23;;;;;;;32.92;13.00;;;;;;;-1.59;100.00;97144.78;5011940;28;20040;-61
2020/12/19 06:52:12;;;;;;;20.08;10.02;;;;;;;-1.35;100.00;97143.03;5001476;28;20078;-61
2020/12/19 06:54:42;;;;;;;17.63;9.18;;;;;;;-1.49;100.00;97160.84;5005083;28;20049;-63
2020/12/19 06:57:23;;;;;;;18.75;10.27;;;;;;;-1.73;99.96;97153.44;5000995;28;20050;-62
2020/12/19 06:59:48;;;;;;;17.98;8.88;;;;;;;-1.81;99.70;97161.28;5005276;28;20046;-62
2020/12/19 07:02:22;;;;;;;19.10;8.68;;;;;;;-1.49;99.34;97160.84;4996776;28;20502;-62
2020/12/19 07:04:49;;;;;;;15.52;8.45;;;;;;;-1.35;99.00;97167.22;5002624;28;20526;-63
2020/12/19 07:07:21;;;;;;;15.95;9.13;;;;;;;-1.39;97.98;97168.03;4999126;28;20112;-61
2020/12/19 07:10:00;;;;;;;15.95;8.80;;;;;;;-1.30;97.89;97166.38;5005097;28;20068;-60
2020/12/19 07:12:31;;;;;;;13.33;7.87;;;;;;;-1.22;97.80;97173.06;4999164;28;20050;-61
2020/12/19 07:14:57;;;;;;;12.68;7.70;;;;;;;-1.22;97.17;97171.16;5012759;28;20069;-62
2020/12/19 07:17:23;;;;;;;15.05;8.90;;;;;;;-1.27;96.55;97181.16;5004734;28;20054;-62
2020/12/19 07:20:00;;;;;;;15.65;8.75;;;;;;;-1.55;96.05;97178.88;5007232;28;20037;-63
2020/12/19 07:22:26;;;;;;;17.30;9.15;;;;;;;-2.01;97.60;97175.56;5000778;28;20077;-63
2020/12/19 07:24:55;;;;;;;16.70;8.40;;;;;;;-2.05;98.19;97177.19;5005496;28;20513;-63
2020/12/19 07:27:22;;;;;;;35.60;18.98;;;;;;;-2.10;99.30;97164.59;5000308;28;20586;-63
2020/12/19 07:29:48;;;;;;;22.52;14.30;;;;;;;-1.78;99.71;97180.31;5000835;28;20052;-61
2020/12/19 07:32:13;;;;;;;43.50;13.07;;;;;;;-1.89;99.48;97172.56;4991697;28;20072;-62
2020/12/19 07:34:39;;;;;;;34.67;10.88;;;;;;;-2.03;100.00;97167.00;4984679;28;20050;-64
2020/12/19 07:37:06;;;;;;;166.52;15.60;;;;;;;-2.22;100.00;97172.94;4980648;28;20042;-64
2020/12/19 07:39:32;;;;;;;50.25;16.50;;;;;;;-2.08;100.00;97167.00;4983654;28;20142;-62
2020/12/19 07:42:00;;;;;;;79.03;14.63;;;;;;;-2.16;100.00;97179.91;4989430;28;20066;-62
2020/12/19 07:44:26;;;;;;;47.25;11.82;;;;;;;-2.17;100.00;97189.03;4979834;28;20050;-62
2020/12/19 07:46:57;;;;;;;49.97;13.38;;;;;;;-2.25;100.00;97188.78;4992252;28;20053;-61
2020/12/19 07:49:24;;;;;;;62.58;16.45;;;;;;;-2.18;100.00;97197.34;5005430;28;20056;-62
2020/12/19 07:51:50;;;;;;;44.08;14.75;;;;;;;-2.05;100.00;97187.91;5021159;28;20037;-63
2020/12/19 07:54:16;;;;;;;55.40;14.20;;;;;;;-2.05;100.00;97190.59;5017894;28;20096;-62
2020/12/19 07:56:43;;;;;;;42.80;16.13;;;;;;;-2.02;100.00;97193.53;5037034;28;20139;-62
2020/12/19 07:59:10;;;;;;;67.10;19.10;;;;;;;-2.05;100.00;97196.78;5018415;28;20136;-61
2020/12/19 08:01:39;;;;;;;81.75;20.40;;;;;;;-1.98;100.00;97191.13;5005941;28;20050;-60
2020/12/19 08:04:04;;;;;;;47.85;15.23;;;;;;;-1.85;100.00;97197.81;4979609;28;20038;-61
2020/12/19 08:06:42;;;;;;;98.03;21.35;;;;;;;-1.92;100.00;97206.16;4983611;28;20043;-61
2020/12/19 08:09:08;;;;;;;177.35;27.02;;;;;;;-1.86;100.00;97204.25;4976887;28;20047;-62
2020/12/19 08:11:44;;;;;;;149.93;18.80;;;;;;;-1.91;100.00;97207.75;4981669;28;20060;-62
2020/12/19 08:14:09;;;;;;;115.63;16.75;;;;;;;-1.94;100.00;97203.72;4979420;28;20498;-61
2020/12/19 08:16:36;;;;;;;105.70;18.25;;;;;;;-1.89;100.00;97202.94;4995264;28;20061;-62
2020/12/19 08:19:03;;;;;;;67.90;17.60;;;;;;;-1.92;100.00;97204.25;5016383;23;20050;-74
2020/12/19 08:21:28;;;;;;;61.78;16.88;;;;;;;-1.87;100.00;97208.81;4991952;28;20644;-66
2020/12/19 08:23:55;;;;;;;111.90;21.70;;;;;;;-1.85;100.00;97217.41;4997318;28;20084;-69
2020/12/19 08:26:21;;;;;;;81.93;18.10;;;;;;;-1.82;100.00;97208.81;4995877;28;20781;-67
2020/12/19 08:29:08;;;;;;;106.35;20.33;;;;;;;-1.78;100.00;97215.22;4997892;28;20041;-66
2020/12/19 08:31:36;;;;;;;97.85;17.30;;;;;;;-1.65;100.00;97213.84;4993756;28;20544;-65
2020/12/19 08:34:10;;;;;;;81.95;18.52;;;;;;;-1.51;100.00;97214.06;5001177;28;20037;-68
2020/12/19 08:36:37;;;;;;;57.13;18.10;;;;;;;-1.36;100.00;97213.97;5015128;28;20037;-66
2020/12/19 08:39:18;;;;;;;45.58;16.30;;;;;;;-1.11;100.00;97222.97;5018200;28;20037;-72
2020/12/19 08:41:44;;;;;;;54.65;18.60;;;;;;;-0.96;100.00;97217.50;5016552;28;20409;-69
2020/12/19 08:44:22;;;;;;;87.43;21.30;;;;;;;-0.92;100.00;97220.41;4990678;28;20046;-70
2020/12/19 08:47:00;;;;;;;58.22;17.75;;;;;;;-1.17;100.00;97232.13;4998877;28;20480;-71
2020/12/19 08:49:25;;;;;;;69.22;18.05;;;;;;;-1.42;100.00;97231.22;4990426;28;20077;-70
2020/12/19 08:51:51;;;;;;;127.22;22.23;;;;;;;-1.48;100.00;97215.38;4997926;28;20570;-68
2020/12/19 08:54:16;;;;;;;64.68;22.60;;;;;;;-1.39;100.00;97225.28;4994923;28;20046;-68
2020/12/19 08:56:43;;;;;;;62.80;25.70;;;;;;;-1.32;100.00;97230.34;4996824;28;20425;-70
2020/12/19 08:59:08;;;;;;;127.03;33.15;;;;;;;-1.39;100.00;97230.66;4994062;28;20042;-68
2020/12/19 09:01:34;;;;;;;52.80;21.02;;;;;;;-1.33;100.00;97218.00;4997233;28;20088;-69
2020/12/19 09:04:09;;;;;;;74.07;16.98;;;;;;;-1.24;100.00;97220.88;4996612;28;20478;-69
2020/12/19 09:06:46;;;;;;;101.18;21.50;;;;;;;-1.11;100.00;97233.72;4998330;28;20077;-67
2020/12/19 09:09:28;;;;;;;70.20;18.42;;;;;;;-1.31;100.00;97233.84;4993959;28;20100;-67
2020/12/19 09:12:10;;;;;;;77.35;23.25;;;;;;;-1.40;100.00;97229.03;4998809;28;20037;-67
2020/12/19 09:14:35;;;;;;;72.05;20.73;;;;;;;-1.17;100.00;97230.28;4998590;28;20139;-67
2020/12/19 09:17:02;;;;;;;87.10;26.75;;;;;;;-1.13;100.00;97235.91;4998512;28;20642;-68
2020/12/19 09:19:27;;;;;;;39.85;20.38;;;;;;;-0.97;100.00;97239.31;4994809;28;20045;-66
2020/12/19 09:21:58;;;;;;;56.60;17.27;;;;;;;-0.65;100.00;97246.06;4996070;28;20044;-68
2020/12/19 09:24:24;;;;;;;65.85;17.70;;;;;;;-0.86;100.00;97243.53;4990110;28;20042;-69
2020/12/19 09:26:49;;;;;;;80.30;18.52;;;;;;;-1.09;100.00;97239.63;5014645;28;20069;-72
2020/12/19 09:29:16;;;;;;;47.88;13.38;;;;;;;-0.90;100.00;97247.88;5002648;28;20081;-66
2020/12/19 09:31:41;;;;;;;40.53;13.93;;;;;;;-0.63;100.00;97247.41;4995455;28;20490;-68
2020/12/19 09:34:07;;;;;;;32.85;12.40;;;;;;;-0.23;100.00;97250.84;4993637;28;20154;-72
2020/12/19 09:36:33;;;;;;;68.68;12.90;;;;;;;-0.16;100.00;97255.91;4999074;28;20057;-72
2020/12/19 09:38:58;;;;;;;44.38;12.13;;;;;;;-1.09;100.00;97245.00;4998880;28;20381;-68
2020/12/19 09:41:24;;;;;;;47.33;15.57;;;;;;;-0.97;100.00;97250.84;4993280;28;20405;-67
2020/12/19 09:43:49;;;;;;;54.85;27.83;;;;;;;-1.00;100.00;97254.09;4996658;28;20037;-68
2020/12/19 09:46:15;;;;;;;52.90;13.85;;;;;;;-1.06;100.00;97247.16;4993582;28;20041;-70
2020/12/19 09:48:41;;;;;;;55.83;11.32;;;;;;;-0.90;100.00;97250.56;4998468;28;20082;-72
2020/12/19 09:51:07;;;;;;;27.02;10.55;;;;;;;-0.74;100.00;97242.38;4994045;28;20136;-67
2020/12/19 09:53:36;;;;;;;29.13;13.57;;;;;;;-0.40;99.29;97237.81;5011478;28;20137;-71
2020/12/19 09:56:02;;;;;;;33.83;11.85;;;;;;;-0.30;98.63;97238.81;5005458;28;20378;-67
2020/12/19 09:58:28;;;;;;;28.92;11.73;;;;;;;-0.18;98.68;97241.94;4992934;28;20046;-67
2020/12/19 10:00:53;;;;;;;46.38;11.77;;;;;;;-0.46;97.73;97236.22;4999157;28;20049;-67
2020/12/19 10:03:18;;;;;;;35.50;10.43;;;;;;;-0.43;98.04;97245.66;4992898;28;20049;-69
2020/12/19 10:05:44;;;;;;;20.25;11.50;;;;;;;-0.06;98.56;97236.94;4998014;28;20120;-68
2020/12/19 10:08:09;;;;;;;21.52;10.77;;;;;;;0.42;96.11;97235.38;4993083;28;20502;-67
2020/12/19 10:10:34;;;;;;;21.73;12.15;;;;;;;0.53;94.77;97231.47;4996350;28;20037;-67
2020/12/19 10:13:01;;;;;;;21.30;12.07;;;;;;;0.27;92.98;97230.94;4995842;28;20045;-69
2020/12/19 10:15:26;;;;;;;20.17;11.57;;;;;;;0.50;91.84;97237.44;4992295;28;20041;-68
2020/12/19 10:17:52;;;;;;;16.98;10.20;;;;;;;0.65;91.54;97228.34;4980014;28;20053;-67
2020/12/19 10:20:17;;;;;;;15.27;8.57;;;;;;;0.91;90.48;97228.81;4997438;28;20042;-68
2020/12/19 10:22:43;;;;;;;20.70;10.35;;;;;;;1.11;89.82;97230.44;5018283;28;20049;-68
2020/12/19 10:25:09;;;;;;;14.77;9.95;;;;;;;0.78;88.86;97229.56;4994810;28;20049;-72
2020/12/19 10:27:34;;;;;;;14.20;8.02;;;;;;;0.68;90.37;97235.84;5004908;28;20049;-66
2020/12/19 10:30:00;;;;;;;14.05;8.15;;;;;;;-0.01;91.96;97236.91;5003121;28;20410;-69
2020/12/19 10:32:26;;;;;;;14.80;8.05;;;;;;;-0.30;93.13;97228.84;4996785;28;20046;-67
2020/12/19 10:34:51;;;;;;;19.33;8.30;;;;;;;-0.29;94.94;97217.00;5003513;28;20042;-66
2020/12/19 10:37:17;;;;;;;16.52;9.05;;;;;;;-0.56;95.59;97222.84;4998036;28;20132;-70
2020/12/19 10:39:42;;;;;;;17.67;9.52;;;;;;;-0.72;96.48;97227.56;5003165;28;20038;-67
2020/12/19 10:42:07;;;;;;;17.38;8.90;;;;;;;-0.84;97.66;97222.53;4996783;28;20058;-67
2020/12/19 10:44:33;;;;;;;23.45;13.27;;;;;;;-0.68;97.53;97220.53;5000777;28;20042;-69
2020/12/19 10:46:59;;;;;;;28.55;15.35;;;;;;;-0.98;97.51;97211.59;5003179;28;20125;-70
2020/12/19 10:49:25;;;;;;;20.88;10.93;;;;;;;-0.89;98.37;97211.81;4976951;28;20257;-69
2020/12/19 10:51:50;;;;;;;18.25;10.00;;;;;;;-0.68;97.42;97201.72;4983237;28;20961;-66
2020/12/19 10:54:16;;;;;;;19.92;11.15;;;;;;;-0.82;96.68;97223.06;4976003;28;20046;-69
2020/12/19 10:56:41;;;;;;;19.10;10.50;;;;;;;-0.62;97.45;97214.03;4982557;28;20076;-67
2020/12/19 10:59:07;;;;;;;18.70;10.13;;;;;;;-0.07;97.37;97218.41;4968145;28;20107;-69
2020/12/19 11:01:32;;;;;;;17.92;10.02;;;;;;;0.10;95.06;97212.56;4985127;28;20046;-67
2020/12/19 11:03:58;;;;;;;17.85;10.40;;;;;;;-0.17;94.51;97199.66;4979532;28;20042;-67
2020/12/19 11:06:25;;;;;;;22.30;13.95;;;;;;;-0.33;95.57;97196.28;4978067;28;20412;-68
2020/12/19 11:08:51;;;;;;;19.48;10.52;;;;;;;-0.11;95.61;97190.41;4983421;28;20389;-67
2020/12/19 11:11:17;;;;;;;16.20;8.50;;;;;;;-0.31;94.13;97180.66;4978718;28;20120;-67
2020/12/19 11:13:44;;;;;;;13.63;8.50;;;;;;;-0.35;95.43;97169.66;4982754;28;20046;-66
2020/12/19 11:16:10;;;;;;;22.85;12.63;;;;;;;-0.56;97.18;97171.72;4979896;28;20402;-69